YSF weather

Stony Rapids Airport
Stony Rapids, Saskatchewan, Canada

Public forecast

Using degrees Celsius for public forecast. Weather courtesy of forecast.io.

Current aviation weather report (METAR) for Stony Rapids Airport

Retrieved 2019/10/23 19:00 UTC (13 minutes ago):

CYSF 231900Z AUTO 04003KT 020V100 9SM OVC095 M02/M02 A3017 RMK SLP240

Aviation forecast (TAF) for Stony Rapids Airport

Retrieved 2019/10/23 18:42 UTC (31 minutes ago):

TAF CYSF 231738Z 2318/2406 VRB03KT P6SM BKN090 OVC220 FM232200 VRB03KT P6SM SCT012 BKN040 OVC100 TEMPO 2322/2403 4SM -SN OVC012 FM240300 VRB03KT P6SM SCT008 OVC025 TEMPO 2403/2406 4SM -SN BR BKN008 OVC025 PROB30 2403/2406 1SM -FZDZ BR OVC004 RMK FCST BASED ON AUTO OBS NXT FCST BY 240000Z